createdAt,value
2023-02-11T00:06:48.997Z,34.70
2023-02-11T00:21:50.477Z,34.70
2023-02-11T00:36:51.941Z,34.80
2023-02-11T00:51:53.485Z,34.80
2023-02-11T01:06:54.951Z,34.90
2023-02-11T01:21:56.424Z,34.80
2023-02-11T01:36:57.880Z,34.90
2023-02-11T01:51:59.356Z,35.00
2023-02-11T02:07:00.812Z,35.00
2023-02-11T02:22:02.287Z,35.00
2023-02-11T02:37:03.807Z,35.00
2023-02-11T02:52:05.429Z,35.10
2023-02-11T03:07:06.941Z,35.20
2023-02-11T03:22:08.460Z,35.20
2023-02-11T03:37:10.055Z,35.20
2023-02-11T03:52:11.538Z,35.30
2023-02-11T04:07:13.057Z,35.20
2023-02-11T04:22:14.554Z,35.30
2023-02-11T04:37:16.092Z,35.30
2023-02-11T04:52:17.577Z,35.50
2023-02-11T05:07:19.080Z,35.50
2023-02-11T05:22:20.588Z,35.50
2023-02-11T05:37:22.219Z,35.50
2023-02-11T05:52:23.800Z,35.60
2023-02-11T06:07:25.283Z,35.60
2023-02-11T06:22:26.770Z,35.70
2023-02-11T06:37:28.362Z,36.80
2023-02-11T06:52:29.858Z,35.80
2023-02-11T07:07:33.892Z,35.80
2023-02-11T07:22:35.638Z,35.80
2023-02-11T07:37:37.270Z,35.80
2023-02-11T07:52:38.768Z,35.80
2023-02-11T08:07:40.236Z,35.90
2023-02-11T08:22:41.744Z,35.90
2023-02-11T08:37:43.205Z,35.90
2023-02-11T08:52:44.675Z,36.10
2023-02-11T09:07:46.137Z,36.00
2023-02-11T09:22:47.590Z,35.90
2023-02-11T09:37:49.080Z,35.90
2023-02-11T09:52:50.618Z,35.80
2023-02-11T10:23:17.343Z,35.60
2023-02-11T10:38:18.821Z,35.60
2023-02-11T10:53:20.329Z,35.50
2023-02-11T11:08:21.832Z,35.50
2023-02-11T11:23:23.307Z,35.40
2023-02-11T11:38:24.838Z,35.60
2023-02-11T11:53:26.313Z,35.60
2023-02-11T12:08:27.838Z,35.60
2023-02-11T12:23:29.346Z,35.50
2023-02-11T12:38:30.954Z,35.30
2023-02-11T12:53:32.427Z,35.40
2023-02-11T13:08:33.990Z,34.80
2023-02-11T13:23:35.469Z,35.00
2023-02-11T13:38:36.998Z,35.30
2023-02-11T13:53:38.476Z,35.70
2023-02-11T14:08:40.053Z,36.10
2023-02-11T14:23:41.584Z,36.30
2023-02-11T14:38:44.281Z,36.40
2023-02-11T14:53:45.737Z,36.60
2023-02-11T15:08:47.189Z,36.80
2023-02-11T15:23:48.644Z,37.20
2023-02-11T15:38:50.232Z,37.60
2023-02-11T15:53:51.721Z,37.90
2023-02-11T16:08:53.246Z,38.10
2023-02-11T16:23:54.724Z,38.40
2023-02-11T16:38:56.201Z,38.60
2023-02-11T16:53:57.658Z,38.60
2023-02-11T17:08:59.141Z,38.70
2023-02-11T17:24:00.616Z,38.70
2023-02-11T17:39:02.093Z,39.10
2023-02-11T17:54:03.548Z,39.10
2023-02-11T18:09:05.010Z,39.30
2023-02-11T18:24:07.300Z,39.70
2023-02-11T18:39:08.875Z,39.40
2023-02-11T18:54:10.365Z,39.40
2023-02-11T19:09:11.825Z,39.50
2023-02-11T19:24:13.293Z,39.40
2023-02-11T19:39:14.771Z,39.50
2023-02-11T19:54:16.228Z,39.50
2023-02-11T20:09:17.697Z,39.50
2023-02-11T20:24:19.160Z,39.50
2023-02-11T20:39:20.636Z,39.70
2023-02-11T20:54:22.108Z,39.90
2023-02-11T21:09:23.562Z,39.90
2023-02-11T21:24:25.035Z,39.90
2023-02-11T21:39:26.507Z,39.90
2023-02-11T21:54:27.990Z,40.00
2023-02-11T22:09:29.485Z,40.10
2023-02-11T23:10:48.087Z,41.20
2023-02-11T23:25:49.577Z,40.20
2023-02-11T23:40:51.070Z,40.20
2023-02-11T23:55:52.754Z,40.30
